sensor_id;sensor_type;location;lat;lon;timestamp;P1;durP1;ratioP1;P2;durP2;ratioP2
22131;SDS011;11232;51.748;19.390;2022-12-29T00:02:13;14.20;;;5.23;;
22131;SDS011;11232;51.748;19.390;2022-12-29T00:04:40;9.87;;;5.43;;
22131;SDS011;11232;51.748;19.390;2022-12-29T00:07:05;9.27;;;5.03;;
22131;SDS011;11232;51.748;19.390;2022-12-29T00:09:32;13.03;;;5.33;;
22131;SDS011;11232;51.748;19.390;2022-12-29T00:11:58;11.17;;;5.37;;
22131;SDS011;11232;51.748;19.390;2022-12-29T00:14:24;9.70;;;4.43;;
22131;SDS011;11232;51.748;19.390;2022-12-29T00:17:09;8.93;;;4.90;;
22131;SDS011;11232;51.748;19.390;2022-12-29T00:19:34;11.20;;;5.63;;
22131;SDS011;11232;51.748;19.390;2022-12-29T00:22:18;9.00;;;5.00;;
22131;SDS011;11232;51.748;19.390;2022-12-29T00:25:03;9.10;;;5.20;;
22131;SDS011;11232;51.748;19.390;2022-12-29T00:27:48;9.90;;;5.17;;
22131;SDS011;11232;51.748;19.390;2022-12-29T00:30:32;10.23;;;4.60;;
22131;SDS011;11232;51.748;19.390;2022-12-29T00:33:17;9.70;;;5.37;;
22131;SDS011;11232;51.748;19.390;2022-12-29T00:36:08;13.13;;;5.60;;
22131;SDS011;11232;51.748;19.390;2022-12-29T00:39:12;11.00;;;4.77;;
22131;SDS011;11232;51.748;19.390;2022-12-29T00:42:05;12.97;;;5.73;;
22131;SDS011;11232;51.748;19.390;2022-12-29T00:44:50;12.30;;;5.03;;
22131;SDS011;11232;51.748;19.390;2022-12-29T00:47:16;10.47;;;5.07;;
22131;SDS011;11232;51.748;19.390;2022-12-29T00:49:41;9.87;;;4.50;;
22131;SDS011;11232;51.748;19.390;2022-12-29T00:52:08;9.00;;;4.93;;
22131;SDS011;11232;51.748;19.390;2022-12-29T00:54:36;10.63;;;4.73;;
22131;SDS011;11232;51.748;19.390;2022-12-29T00:57:03;7.83;;;4.63;;
22131;SDS011;11232;51.748;19.390;2022-12-29T00:59:31;10.30;;;4.87;;
22131;SDS011;11232;51.748;19.390;2022-12-29T01:01:57;11.43;;;4.63;;
22131;SDS011;11232;51.748;19.390;2022-12-29T01:04:24;8.73;;;4.63;;
22131;SDS011;11232;51.748;19.390;2022-12-29T01:06:51;9.03;;;4.73;;
22131;SDS011;11232;51.748;19.390;2022-12-29T01:09:17;7.43;;;4.33;;
22131;SDS011;11232;51.748;19.390;2022-12-29T01:15:24;10.17;;;4.13;;
22131;SDS011;11232;51.748;19.390;2022-12-29T01:17:49;9.43;;;4.53;;
22131;SDS011;11232;51.748;19.390;2022-12-29T01:20:15;9.90;;;4.97;;
22131;SDS011;11232;51.748;19.390;2022-12-29T01:22:41;8.97;;;4.77;;
22131;SDS011;11232;51.748;19.390;2022-12-29T01:25:07;9.03;;;4.57;;
22131;SDS011;11232;51.748;19.390;2022-12-29T01:27:33;11.00;;;4.83;;
22131;SDS011;11232;51.748;19.390;2022-12-29T01:29:58;8.77;;;4.50;;
22131;SDS011;11232;51.748;19.390;2022-12-29T01:32:24;10.80;;;4.33;;
22131;SDS011;11232;51.748;19.390;2022-12-29T01:34:50;7.83;;;4.20;;
22131;SDS011;11232;51.748;19.390;2022-12-29T01:37:15;7.63;;;4.13;;
22131;SDS011;11232;51.748;19.390;2022-12-29T01:39:41;6.60;;;3.90;;
22131;SDS011;11232;51.748;19.390;2022-12-29T01:42:11;7.63;;;4.30;;
22131;SDS011;11232;51.748;19.390;2022-12-29T01:44:57;6.80;;;3.77;;
22131;SDS011;11232;51.748;19.390;2022-12-29T01:50:02;7.93;;;3.80;;
22131;SDS011;11232;51.748;19.390;2022-12-29T01:52:42;8.47;;;4.13;;
22131;SDS011;11232;51.748;19.390;2022-12-29T01:55:15;9.13;;;3.63;;
22131;SDS011;11232;51.748;19.390;2022-12-29T01:57:43;9.73;;;4.47;;
22131;SDS011;11232;51.748;19.390;2022-12-29T02:00:11;8.80;;;3.80;;
22131;SDS011;11232;51.748;19.390;2022-12-29T02:02:39;6.63;;;3.83;;
22131;SDS011;11232;51.748;19.390;2022-12-29T02:05:10;9.33;;;3.80;;
22131;SDS011;11232;51.748;19.390;2022-12-29T02:07:41;5.37;;;3.67;;
22131;SDS011;11232;51.748;19.390;2022-12-29T02:10:08;6.83;;;4.10;;
22131;SDS011;11232;51.748;19.390;2022-12-29T02:12:33;8.70;;;4.10;;
22131;SDS011;11232;51.748;19.390;2022-12-29T02:14:59;7.50;;;4.30;;
22131;SDS011;11232;51.748;19.390;2022-12-29T02:17:41;7.67;;;4.20;;
22131;SDS011;11232;51.748;19.390;2022-12-29T02:23:24;6.47;;;3.77;;
22131;SDS011;11232;51.748;19.390;2022-12-29T02:31:45;6.80;;;3.60;;
22131;SDS011;11232;51.748;19.390;2022-12-29T02:37:20;12.17;;;4.07;;
22131;SDS011;11232;51.748;19.390;2022-12-29T02:48:20;7.17;;;4.10;;
22131;SDS011;11232;51.748;19.390;2022-12-29T02:53:34;6.60;;;3.70;;
22131;SDS011;11232;51.748;19.390;2022-12-29T02:56:20;5.47;;;3.50;;
22131;SDS011;11232;51.748;19.390;2022-12-29T02:58:46;7.90;;;3.43;;
22131;SDS011;11232;51.748;19.390;2022-12-29T03:07:39;7.93;;;3.80;;
22131;SDS011;11232;51.748;19.390;2022-12-29T03:13:01;7.00;;;3.63;;
22131;SDS011;11232;51.748;19.390;2022-12-29T03:16:14;9.80;;;4.03;;
22131;SDS011;11232;51.748;19.390;2022-12-29T03:23:44;9.57;;;4.40;;
22131;SDS011;11232;51.748;19.390;2022-12-29T03:26:15;6.03;;;3.83;;
22131;SDS011;11232;51.748;19.390;2022-12-29T03:28:48;7.23;;;3.97;;
22131;SDS011;11232;51.748;19.390;2022-12-29T03:31:18;8.07;;;4.10;;
22131;SDS011;11232;51.748;19.390;2022-12-29T03:33:47;8.23;;;3.93;;
22131;SDS011;11232;51.748;19.390;2022-12-29T03:36:28;7.70;;;3.90;;
22131;SDS011;11232;51.748;19.390;2022-12-29T03:39:05;9.33;;;4.03;;
22131;SDS011;11232;51.748;19.390;2022-12-29T03:41:36;7.93;;;3.80;;
22131;SDS011;11232;51.748;19.390;2022-12-29T03:44:08;6.63;;;3.87;;
22131;SDS011;11232;51.748;19.390;2022-12-29T03:46:34;6.10;;;3.73;;
22131;SDS011;11232;51.748;19.390;2022-12-29T03:49:00;9.87;;;3.87;;
22131;SDS011;11232;51.748;19.390;2022-12-29T03:51:25;8.70;;;4.00;;
22131;SDS011;11232;51.748;19.390;2022-12-29T03:53:51;8.20;;;4.23;;
22131;SDS011;11232;51.748;19.390;2022-12-29T03:56:17;8.87;;;4.03;;
22131;SDS011;11232;51.748;19.390;2022-12-29T03:58:42;7.37;;;3.67;;
22131;SDS011;11232;51.748;19.390;2022-12-29T04:01:08;5.73;;;3.87;;
22131;SDS011;11232;51.748;19.390;2022-12-29T04:03:33;8.77;;;3.93;;
22131;SDS011;11232;51.748;19.390;2022-12-29T04:05:59;7.43;;;3.87;;
22131;SDS011;11232;51.748;19.390;2022-12-29T04:08:24;9.77;;;4.07;;
22131;SDS011;11232;51.748;19.390;2022-12-29T04:10:50;8.50;;;5.00;;
22131;SDS011;11232;51.748;19.390;2022-12-29T04:13:16;9.13;;;4.33;;
22131;SDS011;11232;51.748;19.390;2022-12-29T04:15:44;7.53;;;3.83;;
22131;SDS011;11232;51.748;19.390;2022-12-29T04:18:11;6.97;;;3.50;;
22131;SDS011;11232;51.748;19.390;2022-12-29T04:20:37;8.77;;;4.07;;
22131;SDS011;11232;51.748;19.390;2022-12-29T04:23:21;5.27;;;3.87;;
22131;SDS011;11232;51.748;19.390;2022-12-29T04:25:47;7.43;;;3.90;;
22131;SDS011;11232;51.748;19.390;2022-12-29T04:28:13;7.97;;;3.70;;
22131;SDS011;11232;51.748;19.390;2022-12-29T04:30:39;6.53;;;3.70;;
22131;SDS011;11232;51.748;19.390;2022-12-29T04:33:05;8.07;;;4.00;;
22131;SDS011;11232;51.748;19.390;2022-12-29T04:35:31;6.87;;;3.97;;
22131;SDS011;11232;51.748;19.390;2022-12-29T04:37:56;5.57;;;3.63;;
22131;SDS011;11232;51.748;19.390;2022-12-29T04:40:22;9.00;;;4.60;;
22131;SDS011;11232;51.748;19.390;2022-12-29T04:42:48;7.43;;;3.80;;
22131;SDS011;11232;51.748;19.390;2022-12-29T04:45:14;7.00;;;4.30;;
22131;SDS011;11232;51.748;19.390;2022-12-29T04:47:40;6.13;;;3.60;;
22131;SDS011;11232;51.748;19.390;2022-12-29T04:50:06;6.60;;;3.73;;
22131;SDS011;11232;51.748;19.390;2022-12-29T04:52:32;5.93;;;3.53;;
22131;SDS011;11232;51.748;19.390;2022-12-29T04:54:58;6.97;;;3.77;;
22131;SDS011;11232;51.748;19.390;2022-12-29T04:57:23;10.07;;;3.97;;
22131;SDS011;11232;51.748;19.390;2022-12-29T04:59:49;8.40;;;3.70;;
22131;SDS011;11232;51.748;19.390;2022-12-29T05:02:15;6.33;;;4.00;;
22131;SDS011;11232;51.748;19.390;2022-12-29T05:04:41;5.87;;;3.57;;
22131;SDS011;11232;51.748;19.390;2022-12-29T05:07:07;8.03;;;3.77;;
22131;SDS011;11232;51.748;19.390;2022-12-29T05:09:32;11.10;;;3.73;;
22131;SDS011;11232;51.748;19.390;2022-12-29T05:11:58;6.57;;;4.20;;
22131;SDS011;11232;51.748;19.390;2022-12-29T05:14:24;5.70;;;3.70;;
22131;SDS011;11232;51.748;19.390;2022-12-29T05:16:49;9.30;;;3.77;;
22131;SDS011;11232;51.748;19.390;2022-12-29T05:19:15;9.63;;;3.90;;
22131;SDS011;11232;51.748;19.390;2022-12-29T05:21:42;7.00;;;4.23;;
22131;SDS011;11232;51.748;19.390;2022-12-29T05:24:08;10.07;;;4.27;;
22131;SDS011;11232;51.748;19.390;2022-12-29T05:26:33;7.43;;;3.73;;
22131;SDS011;11232;51.748;19.390;2022-12-29T05:28:59;7.90;;;4.13;;
22131;SDS011;11232;51.748;19.390;2022-12-29T05:31:25;8.57;;;4.07;;
22131;SDS011;11232;51.748;19.390;2022-12-29T05:33:51;7.60;;;3.80;;
22131;SDS011;11232;51.748;19.390;2022-12-29T05:36:17;7.03;;;3.87;;
22131;SDS011;11232;51.748;19.390;2022-12-29T05:38:43;7.20;;;3.70;;
22131;SDS011;11232;51.748;19.390;2022-12-29T05:41:09;6.33;;;3.97;;
22131;SDS011;11232;51.748;19.390;2022-12-29T05:43:35;11.40;;;4.50;;
22131;SDS011;11232;51.748;19.390;2022-12-29T05:46:00;5.93;;;3.63;;
22131;SDS011;11232;51.748;19.390;2022-12-29T05:48:26;7.07;;;4.37;;
22131;SDS011;11232;51.748;19.390;2022-12-29T05:50:52;5.87;;;3.93;;
22131;SDS011;11232;51.748;19.390;2022-12-29T05:53:23;7.03;;;4.27;;
22131;SDS011;11232;51.748;19.390;2022-12-29T05:55:49;9.57;;;3.83;;
22131;SDS011;11232;51.748;19.390;2022-12-29T05:58:15;6.77;;;3.90;;
22131;SDS011;11232;51.748;19.390;2022-12-29T06:00:41;7.93;;;4.13;;
22131;SDS011;11232;51.748;19.390;2022-12-29T06:03:07;10.57;;;4.27;;
22131;SDS011;11232;51.748;19.390;2022-12-29T06:05:33;7.63;;;3.63;;
22131;SDS011;11232;51.748;19.390;2022-12-29T06:07:58;6.60;;;3.87;;
22131;SDS011;11232;51.748;19.390;2022-12-29T06:10:24;8.77;;;4.33;;
22131;SDS011;11232;51.748;19.390;2022-12-29T06:12:50;6.67;;;3.90;;
22131;SDS011;11232;51.748;19.390;2022-12-29T06:15:16;7.73;;;4.37;;
22131;SDS011;11232;51.748;19.390;2022-12-29T06:17:41;7.03;;;3.93;;
22131;SDS011;11232;51.748;19.390;2022-12-29T06:20:08;7.07;;;3.83;;
22131;SDS011;11232;51.748;19.390;2022-12-29T06:22:35;9.67;;;4.03;;
22131;SDS011;11232;51.748;19.390;2022-12-29T06:25:01;9.00;;;4.50;;
22131;SDS011;11232;51.748;19.390;2022-12-29T06:27:27;7.60;;;4.27;;
22131;SDS011;11232;51.748;19.390;2022-12-29T06:29:53;7.13;;;3.93;;
22131;SDS011;11232;51.748;19.390;2022-12-29T06:32:19;11.23;;;4.70;;
22131;SDS011;11232;51.748;19.390;2022-12-29T06:34:44;7.90;;;4.60;;
22131;SDS011;11232;51.748;19.390;2022-12-29T06:37:11;8.47;;;4.57;;
22131;SDS011;11232;51.748;19.390;2022-12-29T06:39:36;9.40;;;4.00;;
22131;SDS011;11232;51.748;19.390;2022-12-29T06:42:02;8.50;;;4.30;;
22131;SDS011;11232;51.748;19.390;2022-12-29T06:44:28;10.03;;;4.70;;
22131;SDS011;11232;51.748;19.390;2022-12-29T06:46:54;8.03;;;4.60;;
22131;SDS011;11232;51.748;19.390;2022-12-29T06:49:20;8.13;;;4.23;;
22131;SDS011;11232;51.748;19.390;2022-12-29T06:51:46;7.37;;;4.37;;
22131;SDS011;11232;51.748;19.390;2022-12-29T06:54:11;6.67;;;4.37;;
22131;SDS011;11232;51.748;19.390;2022-12-29T06:56:37;8.70;;;4.20;;
22131;SDS011;11232;51.748;19.390;2022-12-29T06:59:03;7.73;;;4.13;;
22131;SDS011;11232;51.748;19.390;2022-12-29T07:01:28;9.87;;;5.00;;
22131;SDS011;11232;51.748;19.390;2022-12-29T07:03:54;6.10;;;4.63;;
22131;SDS011;11232;51.748;19.390;2022-12-29T07:06:20;11.93;;;5.13;;
22131;SDS011;11232;51.748;19.390;2022-12-29T07:08:46;8.97;;;4.53;;
22131;SDS011;11232;51.748;19.390;2022-12-29T07:11:11;9.23;;;4.53;;
22131;SDS011;11232;51.748;19.390;2022-12-29T07:13:37;8.23;;;4.50;;
22131;SDS011;11232;51.748;19.390;2022-12-29T07:16:09;10.53;;;4.43;;
22131;SDS011;11232;51.748;19.390;2022-12-29T07:18:36;8.57;;;4.43;;
22131;SDS011;11232;51.748;19.390;2022-12-29T07:21:02;7.73;;;4.17;;
22131;SDS011;11232;51.748;19.390;2022-12-29T07:23:28;8.83;;;4.90;;
22131;SDS011;11232;51.748;19.390;2022-12-29T07:26:03;9.20;;;4.70;;
22131;SDS011;11232;51.748;19.390;2022-12-29T07:28:30;7.37;;;4.47;;
22131;SDS011;11232;51.748;19.390;2022-12-29T07:30:57;8.97;;;5.23;;
22131;SDS011;11232;51.748;19.390;2022-12-29T07:33:23;9.50;;;4.47;;
22131;SDS011;11232;51.748;19.390;2022-12-29T07:35:49;10.73;;;5.00;;
22131;SDS011;11232;51.748;19.390;2022-12-29T07:38:15;8.73;;;4.77;;
22131;SDS011;11232;51.748;19.390;2022-12-29T07:40:42;8.77;;;4.50;;
22131;SDS011;11232;51.748;19.390;2022-12-29T07:43:07;9.13;;;4.13;;
22131;SDS011;11232;51.748;19.390;2022-12-29T07:45:36;8.87;;;3.90;;
22131;SDS011;11232;51.748;19.390;2022-12-29T07:48:03;9.03;;;4.63;;
22131;SDS011;11232;51.748;19.390;2022-12-29T07:50:38;7.17;;;4.33;;
22131;SDS011;11232;51.748;19.390;2022-12-29T07:53:03;8.10;;;4.50;;
22131;SDS011;11232;51.748;19.390;2022-12-29T07:55:32;9.73;;;4.77;;
22131;SDS011;11232;51.748;19.390;2022-12-29T07:58:00;10.53;;;4.50;;
22131;SDS011;11232;51.748;19.390;2022-12-29T08:00:26;7.03;;;4.10;;
22131;SDS011;11232;51.748;19.390;2022-12-29T08:02:52;9.23;;;4.57;;
22131;SDS011;11232;51.748;19.390;2022-12-29T08:05:18;9.00;;;4.37;;
22131;SDS011;11232;51.748;19.390;2022-12-29T08:07:44;8.57;;;4.13;;
22131;SDS011;11232;51.748;19.390;2022-12-29T08:10:10;8.00;;;4.57;;
22131;SDS011;11232;51.748;19.390;2022-12-29T08:12:40;10.07;;;4.57;;
22131;SDS011;11232;51.748;19.390;2022-12-29T08:15:07;9.97;;;4.27;;
22131;SDS011;11232;51.748;19.390;2022-12-29T08:17:34;8.60;;;4.60;;
22131;SDS011;11232;51.748;19.390;2022-12-29T08:20:00;8.77;;;4.47;;
22131;SDS011;11232;51.748;19.390;2022-12-29T08:22:25;9.70;;;4.30;;
22131;SDS011;11232;51.748;19.390;2022-12-29T08:24:51;8.47;;;4.53;;
22131;SDS011;11232;51.748;19.390;2022-12-29T08:27:19;9.83;;;4.80;;
22131;SDS011;11232;51.748;19.390;2022-12-29T08:29:45;12.07;;;4.80;;
22131;SDS011;11232;51.748;19.390;2022-12-29T08:32:10;7.73;;;4.27;;
22131;SDS011;11232;51.748;19.390;2022-12-29T08:34:36;7.83;;;5.10;;
22131;SDS011;11232;51.748;19.390;2022-12-29T08:37:02;8.33;;;4.57;;
22131;SDS011;11232;51.748;19.390;2022-12-29T08:39:27;10.17;;;5.27;;
22131;SDS011;11232;51.748;19.390;2022-12-29T08:41:53;9.33;;;5.27;;
22131;SDS011;11232;51.748;19.390;2022-12-29T08:44:19;8.90;;;4.70;;
22131;SDS011;11232;51.748;19.390;2022-12-29T08:46:53;8.80;;;4.73;;
22131;SDS011;11232;51.748;19.390;2022-12-29T08:49:19;9.23;;;4.70;;
22131;SDS011;11232;51.748;19.390;2022-12-29T08:51:44;7.87;;;4.60;;
22131;SDS011;11232;51.748;19.390;2022-12-29T08:54:10;8.17;;;5.00;;
22131;SDS011;11232;51.748;19.390;2022-12-29T08:56:36;6.30;;;4.10;;
22131;SDS011;11232;51.748;19.390;2022-12-29T08:59:01;10.90;;;5.63;;
22131;SDS011;11232;51.748;19.390;2022-12-29T09:01:27;10.47;;;4.83;;
22131;SDS011;11232;51.748;19.390;2022-12-29T09:03:53;8.53;;;5.17;;
22131;SDS011;11232;51.748;19.390;2022-12-29T09:06:19;11.93;;;5.40;;
22131;SDS011;11232;51.748;19.390;2022-12-29T09:08:45;13.73;;;5.23;;
22131;SDS011;11232;51.748;19.390;2022-12-29T09:13:42;8.77;;;5.00;;
22131;SDS011;11232;51.748;19.390;2022-12-29T09:16:14;10.27;;;5.13;;
22131;SDS011;11232;51.748;19.390;2022-12-29T09:18:41;10.27;;;5.00;;
22131;SDS011;11232;51.748;19.390;2022-12-29T09:21:09;9.37;;;4.93;;
22131;SDS011;11232;51.748;19.390;2022-12-29T09:23:36;10.37;;;5.03;;
22131;SDS011;11232;51.748;19.390;2022-12-29T09:26:02;11.53;;;5.13;;
22131;SDS011;11232;51.748;19.390;2022-12-29T09:28:30;9.63;;;5.13;;
22131;SDS011;11232;51.748;19.390;2022-12-29T09:30:59;8.77;;;4.43;;
22131;SDS011;11232;51.748;19.390;2022-12-29T09:33:25;10.87;;;5.30;;
22131;SDS011;11232;51.748;19.390;2022-12-29T09:35:55;10.03;;;5.00;;
22131;SDS011;11232;51.748;19.390;2022-12-29T09:38:21;9.93;;;5.07;;
22131;SDS011;11232;51.748;19.390;2022-12-29T09:41:11;9.93;;;4.93;;
22131;SDS011;11232;51.748;19.390;2022-12-29T09:46:30;13.33;;;4.87;;
22131;SDS011;11232;51.748;19.390;2022-12-29T09:49:06;10.00;;;5.03;;
22131;SDS011;11232;51.748;19.390;2022-12-29T09:51:50;9.63;;;4.67;;
22131;SDS011;11232;51.748;19.390;2022-12-29T09:57:22;8.80;;;4.87;;
22131;SDS011;11232;51.748;19.390;2022-12-29T09:59:54;7.97;;;4.73;;
22131;SDS011;11232;51.748;19.390;2022-12-29T10:02:34;9.60;;;5.00;;
22131;SDS011;11232;51.748;19.390;2022-12-29T10:08:29;10.70;;;4.80;;
22131;SDS011;11232;51.748;19.390;2022-12-29T10:14:14;9.97;;;5.20;;
22131;SDS011;11232;51.748;19.390;2022-12-29T10:17:05;8.77;;;4.30;;
22131;SDS011;11232;51.748;19.390;2022-12-29T10:23:05;9.20;;;4.97;;
22131;SDS011;11232;51.748;19.390;2022-12-29T10:25:56;8.80;;;5.13;;
22131;SDS011;11232;51.748;19.390;2022-12-29T10:31:03;10.73;;;5.00;;
22131;SDS011;11232;51.748;19.390;2022-12-29T10:33:41;10.97;;;4.37;;
22131;SDS011;11232;51.748;19.390;2022-12-29T10:41:44;8.70;;;5.17;;
22131;SDS011;11232;51.748;19.390;2022-12-29T10:44:58;10.53;;;4.97;;
22131;SDS011;11232;51.748;19.390;2022-12-29T10:47:28;10.30;;;5.73;;
22131;SDS011;11232;51.748;19.390;2022-12-29T10:50:00;8.27;;;4.83;;
22131;SDS011;11232;51.748;19.390;2022-12-29T10:52:49;12.77;;;5.37;;
22131;SDS011;11232;51.748;19.390;2022-12-29T10:55:30;10.37;;;5.30;;
22131;SDS011;11232;51.748;19.390;2022-12-29T10:58:08;7.37;;;4.70;;
22131;SDS011;11232;51.748;19.390;2022-12-29T11:00:38;8.80;;;4.30;;
22131;SDS011;11232;51.748;19.390;2022-12-29T11:03:11;7.70;;;4.80;;
22131;SDS011;11232;51.748;19.390;2022-12-29T11:08:19;9.63;;;4.90;;
22131;SDS011;11232;51.748;19.390;2022-12-29T11:11:01;9.33;;;5.40;;
22131;SDS011;11232;51.748;19.390;2022-12-29T11:13:34;9.13;;;4.80;;
22131;SDS011;11232;51.748;19.390;2022-12-29T11:16:26;11.53;;;4.77;;
22131;SDS011;11232;51.748;19.390;2022-12-29T11:18:59;8.40;;;4.40;;
22131;SDS011;11232;51.748;19.390;2022-12-29T11:21:35;9.83;;;5.20;;
22131;SDS011;11232;51.748;19.390;2022-12-29T11:27:14;11.00;;;5.37;;
22131;SDS011;11232;51.748;19.390;2022-12-29T11:29:53;11.40;;;5.30;;
22131;SDS011;11232;51.748;19.390;2022-12-29T11:32:36;7.87;;;4.97;;
22131;SDS011;11232;51.748;19.390;2022-12-29T11:35:31;8.73;;;4.57;;
22131;SDS011;11232;51.748;19.390;2022-12-29T11:38:02;8.47;;;4.60;;
22131;SDS011;11232;51.748;19.390;2022-12-29T11:40:28;9.30;;;4.90;;
22131;SDS011;11232;51.748;19.390;2022-12-29T11:42:58;11.87;;;5.17;;
22131;SDS011;11232;51.748;19.390;2022-12-29T11:45:42;9.70;;;4.53;;
22131;SDS011;11232;51.748;19.390;2022-12-29T11:48:18;11.40;;;4.77;;
22131;SDS011;11232;51.748;19.390;2022-12-29T11:50:53;9.43;;;4.73;;
22131;SDS011;11232;51.748;19.390;2022-12-29T11:53:21;8.23;;;4.43;;
22131;SDS011;11232;51.748;19.390;2022-12-29T11:55:53;9.10;;;4.30;;
22131;SDS011;11232;51.748;19.390;2022-12-29T11:58:20;8.40;;;4.50;;
22131;SDS011;11232;51.748;19.390;2022-12-29T12:00:52;11.43;;;5.93;;
22131;SDS011;11232;51.748;19.390;2022-12-29T12:03:22;8.73;;;4.60;;
22131;SDS011;11232;51.748;19.390;2022-12-29T12:05:51;9.30;;;4.60;;
22131;SDS011;11232;51.748;19.390;2022-12-29T12:13:55;10.93;;;5.63;;
22131;SDS011;11232;51.748;19.390;2022-12-29T12:16:49;11.30;;;5.60;;
22131;SDS011;11232;51.748;19.390;2022-12-29T12:19:32;12.60;;;5.00;;
22131;SDS011;11232;51.748;19.390;2022-12-29T12:30:05;12.00;;;5.43;;
22131;SDS011;11232;51.748;19.390;2022-12-29T12:33:14;11.10;;;5.30;;
22131;SDS011;11232;51.748;19.390;2022-12-29T12:41:07;10.03;;;5.37;;
22131;SDS011;11232;51.748;19.390;2022-12-29T12:44:00;8.90;;;5.57;;
22131;SDS011;11232;51.748;19.390;2022-12-29T12:52:32;11.30;;;5.40;;
22131;SDS011;11232;51.748;19.390;2022-12-29T12:59:11;11.87;;;5.23;;
22131;SDS011;11232;51.748;19.390;2022-12-29T13:06:14;11.07;;;5.17;;
22131;SDS011;11232;51.748;19.390;2022-12-29T13:09:08;8.37;;;5.20;;
22131;SDS011;11232;51.748;19.390;2022-12-29T13:12:06;9.57;;;5.03;;
22131;SDS011;11232;51.748;19.390;2022-12-29T13:15:02;9.33;;;4.53;;
22131;SDS011;11232;51.748;19.390;2022-12-29T13:34:29;10.47;;;4.63;;
22131;SDS011;11232;51.748;19.390;2022-12-29T13:37:15;8.20;;;4.90;;
22131;SDS011;11232;51.748;19.390;2022-12-29T13:40:13;10.50;;;5.20;;
22131;SDS011;11232;51.748;19.390;2022-12-29T13:42:42;9.13;;;4.73;;
22131;SDS011;11232;51.748;19.390;2022-12-29T13:45:14;10.40;;;5.07;;
22131;SDS011;11232;51.748;19.390;2022-12-29T13:47:54;11.93;;;5.13;;
22131;SDS011;11232;51.748;19.390;2022-12-29T13:50:27;11.47;;;5.80;;
22131;SDS011;11232;51.748;19.390;2022-12-29T13:56:15;10.70;;;4.87;;
22131;SDS011;11232;51.748;19.390;2022-12-29T14:02:02;8.77;;;4.97;;
22131;SDS011;11232;51.748;19.390;2022-12-29T14:05:02;8.03;;;4.57;;
22131;SDS011;11232;51.748;19.390;2022-12-29T14:14:41;11.17;;;5.53;;
22131;SDS011;11232;51.748;19.390;2022-12-29T14:17:20;10.43;;;4.83;;
22131;SDS011;11232;51.748;19.390;2022-12-29T14:19:47;11.77;;;4.57;;
22131;SDS011;11232;51.748;19.390;2022-12-29T14:22:27;9.73;;;5.17;;
22131;SDS011;11232;51.748;19.390;2022-12-29T14:24:53;10.33;;;5.47;;
22131;SDS011;11232;51.748;19.390;2022-12-29T14:29:45;11.80;;;5.60;;
22131;SDS011;11232;51.748;19.390;2022-12-29T14:34:50;10.67;;;5.20;;
22131;SDS011;11232;51.748;19.390;2022-12-29T14:37:27;6.93;;;4.83;;
22131;SDS011;11232;51.748;19.390;2022-12-29T14:42:43;11.17;;;5.17;;
22131;SDS011;11232;51.748;19.390;2022-12-29T14:47:50;12.07;;;5.83;;
22131;SDS011;11232;51.748;19.390;2022-12-29T14:53:10;11.33;;;5.47;;
22131;SDS011;11232;51.748;19.390;2022-12-29T14:56:10;11.50;;;5.63;;
22131;SDS011;11232;51.748;19.390;2022-12-29T14:58:42;9.90;;;5.60;;
22131;SDS011;11232;51.748;19.390;2022-12-29T15:01:20;13.50;;;6.33;;
22131;SDS011;11232;51.748;19.390;2022-12-29T15:03:47;11.07;;;5.87;;
22131;SDS011;11232;51.748;19.390;2022-12-29T15:06:17;13.87;;;6.33;;
22131;SDS011;11232;51.748;19.390;2022-12-29T15:14:26;12.00;;;5.80;;
22131;SDS011;11232;51.748;19.390;2022-12-29T15:17:21;11.93;;;5.73;;
22131;SDS011;11232;51.748;19.390;2022-12-29T15:19:56;11.30;;;5.60;;
22131;SDS011;11232;51.748;19.390;2022-12-29T15:22:24;10.50;;;5.93;;
22131;SDS011;11232;51.748;19.390;2022-12-29T15:24:54;11.80;;;6.50;;
22131;SDS011;11232;51.748;19.390;2022-12-29T15:27:21;13.47;;;5.90;;
22131;SDS011;11232;51.748;19.390;2022-12-29T15:29:55;12.17;;;5.87;;
22131;SDS011;11232;51.748;19.390;2022-12-29T15:32:27;14.50;;;5.97;;
22131;SDS011;11232;51.748;19.390;2022-12-29T15:35:16;10.93;;;5.27;;
22131;SDS011;11232;51.748;19.390;2022-12-29T15:37:57;11.07;;;6.30;;
22131;SDS011;11232;51.748;19.390;2022-12-29T15:40:28;9.93;;;6.13;;
22131;SDS011;11232;51.748;19.390;2022-12-29T15:43:08;14.17;;;6.23;;
22131;SDS011;11232;51.748;19.390;2022-12-29T15:45:45;11.47;;;6.20;;
22131;SDS011;11232;51.748;19.390;2022-12-29T15:48:16;15.33;;;6.73;;
22131;SDS011;11232;51.748;19.390;2022-12-29T15:50:44;14.67;;;7.20;;
22131;SDS011;11232;51.748;19.390;2022-12-29T15:53:11;11.80;;;6.00;;
22131;SDS011;11232;51.748;19.390;2022-12-29T15:55:52;13.77;;;7.23;;
22131;SDS011;11232;51.748;19.390;2022-12-29T15:58:22;11.63;;;7.00;;
22131;SDS011;11232;51.748;19.390;2022-12-29T16:00:54;13.00;;;6.53;;
22131;SDS011;11232;51.748;19.390;2022-12-29T16:03:22;15.20;;;6.97;;
22131;SDS011;11232;51.748;19.390;2022-12-29T16:08:39;14.37;;;6.90;;
22131;SDS011;11232;51.748;19.390;2022-12-29T16:11:20;17.17;;;7.23;;
22131;SDS011;11232;51.748;19.390;2022-12-29T16:13:51;12.27;;;7.27;;
22131;SDS011;11232;51.748;19.390;2022-12-29T16:16:23;13.30;;;7.20;;
22131;SDS011;11232;51.748;19.390;2022-12-29T16:18:55;12.23;;;7.07;;
22131;SDS011;11232;51.748;19.390;2022-12-29T16:21:32;17.67;;;7.77;;
22131;SDS011;11232;51.748;19.390;2022-12-29T16:24:11;13.80;;;8.00;;
22131;SDS011;11232;51.748;19.390;2022-12-29T16:26:45;17.33;;;7.70;;
22131;SDS011;11232;51.748;19.390;2022-12-29T16:29:15;13.17;;;7.33;;
22131;SDS011;11232;51.748;19.390;2022-12-29T16:34:29;13.63;;;7.63;;
22131;SDS011;11232;51.748;19.390;2022-12-29T16:37:01;14.13;;;6.90;;
22131;SDS011;11232;51.748;19.390;2022-12-29T16:39:49;12.57;;;6.43;;
22131;SDS011;11232;51.748;19.390;2022-12-29T16:42:34;11.53;;;6.73;;
22131;SDS011;11232;51.748;19.390;2022-12-29T16:50:41;14.87;;;6.77;;
22131;SDS011;11232;51.748;19.390;2022-12-29T16:55:47;13.77;;;6.97;;
22131;SDS011;11232;51.748;19.390;2022-12-29T16:58:18;15.23;;;7.63;;
22131;SDS011;11232;51.748;19.390;2022-12-29T17:00:55;12.37;;;6.97;;
22131;SDS011;11232;51.748;19.390;2022-12-29T17:03:46;15.67;;;7.50;;
22131;SDS011;11232;51.748;19.390;2022-12-29T17:06:18;17.87;;;7.00;;
22131;SDS011;11232;51.748;19.390;2022-12-29T17:09:28;17.43;;;7.70;;
22131;SDS011;11232;51.748;19.390;2022-12-29T17:11:57;15.57;;;7.63;;
22131;SDS011;11232;51.748;19.390;2022-12-29T17:19:47;15.17;;;8.10;;
22131;SDS011;11232;51.748;19.390;2022-12-29T17:22:19;14.03;;;7.63;;
22131;SDS011;11232;51.748;19.390;2022-12-29T17:24:49;13.37;;;7.53;;
22131;SDS011;11232;51.748;19.390;2022-12-29T17:27:20;12.60;;;7.10;;
22131;SDS011;11232;51.748;19.390;2022-12-29T17:29:49;16.03;;;7.80;;
22131;SDS011;11232;51.748;19.390;2022-12-29T17:32:17;13.73;;;7.87;;
22131;SDS011;11232;51.748;19.390;2022-12-29T17:41:29;14.43;;;7.40;;
22131;SDS011;11232;51.748;19.390;2022-12-29T17:43:55;14.83;;;7.77;;
22131;SDS011;11232;51.748;19.390;2022-12-29T17:46:22;19.20;;;8.23;;
22131;SDS011;11232;51.748;19.390;2022-12-29T17:48:51;20.67;;;8.90;;
22131;SDS011;11232;51.748;19.390;2022-12-29T17:51:19;20.80;;;8.50;;
22131;SDS011;11232;51.748;19.390;2022-12-29T17:53:45;15.53;;;8.37;;
22131;SDS011;11232;51.748;19.390;2022-12-29T17:56:11;13.47;;;7.63;;
22131;SDS011;11232;51.748;19.390;2022-12-29T17:58:37;15.33;;;7.30;;